Time;durP1;ratioP1;P1;durP2;ratioP2;P2;SDS_P1;SDS_P2;PMS_P1;PMS_P2;Temp;Humidity;BMP_temperature;BMP_pressure;BME280_temperature;BME280_humidity;BME280_pressure;Samples;Min_cycle;Max_cycle;Signal;HPM_P1;HPM_P2
2022/07/04 11:52:44;;;;;;;;;2.00;2.00;;;;;41.37;15.59;101616.56;5041457;27;1391714;-78
2022/07/04 11:55:15;;;;;;;;;2.25;1.75;;;;;40.81;16.63;101613.25;5098797;27;45431;-79
2022/07/04 11:57:43;;;;;;;;;2.00;1.50;;;;;40.66;16.48;101610.53;5081575;27;45367;-80
2022/07/04 12:00:12;;;;;;;;;1.25;1.25;;;;;40.62;16.39;101595.59;5098426;27;45344;-80
2022/07/04 12:02:38;;;;;;;;;0.25;0.25;;;;;40.54;16.72;101597.00;5094289;27;45463;-79
2022/07/04 12:05:06;;;;;;;;;1.75;1.50;;;;;40.44;16.46;101601.75;5101974;27;45317;-79
2022/07/04 12:07:34;;;;;;;;;0.75;0.75;;;;;40.18;16.56;101587.97;5101207;27;45493;-79
2022/07/04 12:10:17;;;;;;;;;1.75;1.75;;;;;39.80;17.00;101589.38;5098829;27;45321;-81
2022/07/04 12:12:55;;;;;;;;;0.50;0.50;;;;;38.86;17.61;101595.31;5101607;27;45752;-80
2022/07/04 12:15:22;;;;;;;;;1.25;0.75;;;;;38.53;17.74;101596.56;5084102;27;45281;-81
2022/07/04 12:17:54;;;;;;;;;1.00;1.00;;;;;38.57;17.60;101589.41;5083080;27;46599;-81
2022/07/04 12:20:23;;;;;;;;;1.75;1.75;;;;;38.61;17.67;101589.72;5101864;27;45594;-81
2022/07/04 12:22:59;;;;;;;;;3.75;0.50;;;;;38.21;17.79;101585.63;5073039;27;45567;-81
2022/07/04 12:25:32;;;;;;;;;1.00;1.00;;;;;38.15;18.12;101583.94;5083059;27;45312;-81
2022/07/04 12:28:03;;;;;;;;;2.00;0.00;;;;;38.08;18.54;101583.31;5061881;28;45540;-83
2022/07/04 12:30:35;;;;;;;;;1.25;1.25;;;;;38.00;18.19;101562.56;5099606;27;45505;-81
2022/07/04 12:33:07;;;;;;;;;3.50;2.00;;;;;38.08;18.72;101564.84;5100582;27;45657;-81
2022/07/04 12:35:40;;;;;;;;;1.00;0.00;;;;;37.90;18.89;101573.50;5082459;27;45265;-81
2022/07/04 12:38:16;;;;;;;;;2.00;2.00;;;;;37.98;18.66;101567.50;5100484;27;45401;-82
2022/07/04 12:41:01;;;;;;;;;2.00;2.00;;;;;37.83;18.99;101567.41;5082322;27;47340;-81
2022/07/04 12:43:45;;;;;;;;;1.75;1.00;;;;;37.97;18.65;101554.00;5100887;27;45240;-81
2022/07/04 12:46:33;;;;;;;;;2.00;2.00;;;;;37.99;18.94;101562.81;5101044;27;45338;-81
2022/07/04 12:49:01;;;;;;;;;2.00;2.00;;;;;38.04;18.86;101562.88;5082163;27;45422;-81
2022/07/04 12:51:29;;;;;;;;;1.00;1.00;;;;;37.95;18.44;101554.25;5081664;27;48222;-82
2022/07/04 12:53:56;;;;;;;;;1.00;1.00;;;;;37.97;18.64;101551.25;5100559;27;45386;-81
2022/07/04 12:56:31;;;;;;;;;0.00;0.00;;;;;38.11;18.66;101544.16;5082339;27;45366;-82
2022/07/04 12:58:57;;;;;;;;;3.00;2.00;;;;;38.21;18.93;101541.47;5100805;27;45261;-81
2022/07/04 13:01:23;;;;;;;;;1.00;1.00;;;;;38.26;18.22;101549.75;5082089;27;46220;-82
2022/07/04 13:03:48;;;;;;;;;0.75;0.75;;;;;38.00;18.44;101539.66;5082437;27;45448;-81
2022/07/04 13:06:13;;;;;;;;;1.50;1.50;;;;;38.05;18.75;101542.47;5082145;27;45274;-81
2022/07/04 13:08:39;;;;;;;;;1.75;1.00;;;;;38.02;18.60;101531.94;5100334;27;45231;-81
2022/07/04 13:13:48;;;;;;;;;4.25;1.25;;;;;37.67;19.03;101536.16;5100636;27;45218;-81
2022/07/04 13:16:14;;;;;;;;;3.50;2.00;;;;;37.54;19.46;101531.03;5100828;27;45316;-81
2022/07/04 13:18:40;;;;;;;;;0.25;0.25;;;;;37.51;19.40;101536.25;5100627;27;45233;-81
2022/07/04 13:21:05;;;;;;;;;1.00;1.00;;;;;37.73;18.87;101537.84;5082200;27;47318;-81
2022/07/04 13:23:30;;;;;;;;;2.25;1.00;;;;;37.72;19.03;101527.06;5095530;27;45436;-81
2022/07/04 13:25:56;;;;;;;;;3.00;2.00;;;;;38.38;18.95;101533.81;5089485;27;45552;-81
2022/07/04 13:28:21;;;;;;;;;1.00;1.00;;;;;38.53;18.32;101520.09;5100457;27;45377;-81
2022/07/04 13:30:46;;;;;;;;;2.00;1.25;;;;;38.60;18.56;101519.88;5082101;27;46098;-82
2022/07/04 13:33:12;;;;;;;;;1.00;1.00;;;;;38.24;19.17;101518.03;5099519;27;45498;-81
2022/07/04 13:35:37;;;;;;;;;2.00;2.00;;;;;38.37;18.56;101518.34;5102076;27;45498;-82
2022/07/04 13:38:02;;;;;;;;;2.50;1.75;;;;;37.79;18.97;101520.22;5101852;27;45388;-81
2022/07/04 13:40:28;;;;;;;;;0.50;0.25;;;;;37.52;19.41;101522.19;5100397;27;46170;-80
2022/07/04 13:42:59;;;;;;;;;1.00;1.00;;;;;37.40;19.78;101521.56;5097421;27;45509;-81
2022/07/04 13:45:25;;;;;;;;;2.00;1.00;;;;;37.62;19.44;101518.72;5082017;27;45413;-81
2022/07/04 13:47:51;;;;;;;;;1.75;0.25;;;;;37.74;19.10;101522.13;5102496;27;45905;-81
2022/07/04 13:50:17;;;;;;;;;1.00;1.00;;;;;37.67;19.26;101510.50;5085016;27;48108;-81
2022/07/04 13:52:43;;;;;;;;;1.50;1.00;;;;;37.68;19.45;101518.50;5080871;27;45451;-81
2022/07/04 13:55:09;;;;;;;;;1.75;1.50;;;;;37.77;19.60;101516.09;5103583;27;45439;-81
2022/07/04 13:57:35;;;;;;;;;4.00;2.00;;;;;37.76;19.51;101520.78;5084919;27;45429;-81
2022/07/04 14:00:00;;;;;;;;;1.00;1.00;;;;;38.43;18.56;101510.91;5084785;27;47444;-81
2022/07/04 14:02:26;;;;;;;;;3.50;1.75;;;;;38.59;18.50;101507.16;5103245;27;45242;-81
2022/07/04 14:04:51;;;;;;;;;2.00;1.00;;;;;38.42;18.47;101510.13;5082178;27;45496;-81
2022/07/04 14:07:17;;;;;;;;;1.75;1.50;;;;;37.82;18.58;101521.63;5103180;27;45227;-81
2022/07/04 14:09:42;;;;;;;;;2.00;0.75;;;;;37.55;19.07;101499.63;5102934;27;45243;-81
2022/07/04 14:12:08;;;;;;;;;2.00;1.50;;;;;37.38;19.19;101513.56;5084552;27;45547;-81
2022/07/04 14:14:35;;;;;;;;;2.50;2.00;;;;;37.44;19.53;101508.91;5100951;27;45239;-81
2022/07/04 14:17:00;;;;;;;;;3.00;2.00;;;;;37.49;19.40;101503.44;5103309;27;45229;-81
2022/07/04 14:19:26;;;;;;;;;1.00;1.00;;;;;37.65;19.49;101508.00;5084536;27;47347;-81
2022/07/04 14:21:51;;;;;;;;;3.00;1.75;;;;;38.02;19.19;101496.94;5081887;27;45424;-81
2022/07/04 14:24:17;;;;;;;;;0.50;0.50;;;;;38.08;19.38;101497.81;5103149;27;45423;-81
2022/07/04 14:26:43;;;;;;;;;0.00;0.00;;;;;37.95;19.81;101504.63;5084376;27;45499;-81
2022/07/04 14:29:08;;;;;;;;;0.25;0.25;;;;;38.66;19.04;101491.16;5084586;27;48151;-81
2022/07/04 14:31:33;;;;;;;;;2.00;1.00;;;;;38.76;18.68;101477.38;5102850;27;45421;-81
2022/07/04 14:33:59;;;;;;;;;0.25;0.25;;;;;38.35;18.89;101484.69;5103207;27;45358;-82
2022/07/04 14:36:24;;;;;;;;;0.00;0.00;;;;;38.41;19.03;101477.25;5100291;27;45404;-80
2022/07/04 14:38:49;;;;;;;;;2.00;1.25;;;;;38.39;19.03;101484.97;5086129;27;47034;-81
2022/07/04 14:41:15;;;;;;;;;0.75;0.75;;;;;38.35;19.62;101481.91;5084453;27;45411;-81
2022/07/04 14:43:42;;;;;;;;;0.00;0.00;;;;;38.94;18.74;101473.25;5100814;27;45311;-81
2022/07/04 14:46:08;;;;;;;;;1.00;1.00;;;;;38.65;18.71;101472.94;5084753;27;45909;-80
2022/07/04 14:48:34;;;;;;;;;1.25;0.75;;;;;38.64;18.82;101485.06;5085388;27;47838;-80
2022/07/04 14:51:00;;;;;;;;;0.00;0.00;;;;;38.54;18.77;101477.59;5102903;27;45267;-80
2022/07/04 14:53:26;;;;;;;;;1.75;1.75;;;;;38.57;17.84;101481.75;5081754;27;45393;-80
2022/07/04 14:55:51;;;;;;;;;1.00;1.00;;;;;38.25;18.07;101484.63;5084372;27;45897;-81
2022/07/04 14:58:17;;;;;;;;;0.00;0.00;;;;;38.29;18.52;101473.91;5083800;27;46774;-81
2022/07/04 15:00:42;;;;;;;;;0.25;0.25;;;;;38.45;18.39;101465.38;5102440;27;45521;-81
2022/07/04 15:03:07;;;;;;;;;2.00;0.00;;;;;38.70;18.37;101456.34;5099893;27;45610;-80
2022/07/04 15:05:33;;;;;;;;;0.25;0.25;;;;;38.61;18.85;101463.53;5084015;27;45354;-81
2022/07/04 15:07:58;;;;;;;;;3.50;1.25;;;;;38.46;18.77;101460.69;5101983;27;45421;-81
2022/07/04 15:10:24;;;;;;;;;1.50;1.50;;;;;38.51;18.35;101458.00;5102510;27;45365;-81
2022/07/04 15:12:50;;;;;;;;;2.00;1.00;;;;;38.57;18.26;101454.16;5099981;27;45543;-80
2022/07/04 15:15:15;;;;;;;;;3.00;1.25;;;;;38.66;18.71;101466.31;5102285;27;45468;-80
2022/07/04 15:17:41;;;;;;;;;0.50;0.50;;;;;38.68;19.12;101450.31;5083630;27;47167;-80
2022/07/04 15:25:35;;;;;;;;;0.00;0.00;;;;;38.78;18.49;101446.72;5102532;27;45521;-81
2022/07/04 15:28:01;;;;;;;;;2.25;1.00;;;;;39.12;18.07;101458.09;5093600;27;45259;-81
2022/07/04 15:30:26;;;;;;;;;1.00;1.00;;;;;39.38;17.69;101442.31;5083988;27;45405;-81
2022/07/04 15:32:52;;;;;;;;;1.00;1.00;;;;;39.29;17.61;101442.88;5082190;27;45379;-80
2022/07/04 15:35:17;;;;;;;;;0.00;0.00;;;;;38.67;18.35;101439.53;5095645;27;45246;-80
2022/07/04 15:37:42;;;;;;;;;1.00;1.00;;;;;38.42;18.50;101432.84;5101501;27;45367;-80
2022/07/04 15:40:09;;;;;;;;;1.25;1.00;;;;;38.19;18.60;101441.56;5083358;27;46348;-80
2022/07/04 15:42:35;;;;;;;;;1.50;1.50;;;;;38.42;18.50;101432.84;5099917;27;45480;-81
2022/07/04 15:45:00;;;;;;;;;1.00;1.00;;;;;38.33;18.85;101434.47;5098242;27;45367;-80
2022/07/04 15:47:25;;;;;;;;;1.00;1.00;;;;;38.42;18.77;101426.47;5093380;27;45281;-81
2022/07/04 15:49:51;;;;;;;;;1.00;1.00;;;;;38.14;19.01;101433.28;5102250;27;45433;-80
2022/07/04 15:52:16;;;;;;;;;0.25;0.25;;;;;38.05;18.58;101437.66;5101521;27;45481;-81
2022/07/04 15:54:42;;;;;;;;;2.00;1.25;;;;;38.02;19.19;101438.16;5083525;27;45553;-81
2022/07/04 15:57:08;;;;;;;;;0.00;0.00;;;;;37.98;19.20;101434.28;5102759;27;46332;-81
2022/07/04 15:59:33;;;;;;;;;4.25;3.00;;;;;38.04;18.70;101444.25;5071607;27;45424;-81
2022/07/04 16:01:58;;;;;;;;;1.50;1.50;;;;;37.84;18.94;101420.16;5105135;27;45317;-81
2022/07/04 16:04:24;;;;;;;;;1.00;1.00;;;;;37.69;18.61;101429.19;5077015;27;46918;-81
2022/07/04 16:06:49;;;;;;;;;1.00;0.25;;;;;37.45;18.84;101428.72;5084085;27;45954;-81
2022/07/04 16:09:15;;;;;;;;;1.00;1.00;;;;;38.21;18.86;101425.59;5100712;27;45489;-81
2022/07/04 16:11:41;;;;;;;;;0.00;0.00;;;;;37.76;18.81;101434.47;5101605;27;45780;-80
2022/07/04 16:14:06;;;;;;;;;0.75;0.75;;;;;37.66;18.89;101428.91;5101449;27;46718;-80
2022/07/04 16:16:32;;;;;;;;;0.00;0.00;;;;;37.49;19.01;101422.69;5082618;27;46541;-81
2022/07/04 16:18:57;;;;;;;;;0.25;0.25;;;;;37.63;18.92;101421.97;5101072;27;45214;-80
2022/07/04 16:21:23;;;;;;;;;0.00;0.00;;;;;37.42;19.17;101422.94;5101162;27;46026;-81
2022/07/04 16:23:48;;;;;;;;;1.75;1.25;;;;;37.36;18.69;101432.25;5082696;27;45314;-81
2022/07/04 16:26:14;;;;;;;;;2.00;2.00;;;;;37.15;19.31;101424.94;5101164;27;45238;-81
2022/07/04 16:28:39;;;;;;;;;1.00;1.00;;;;;37.16;19.26;101430.16;5100820;27;45214;-81
2022/07/04 16:31:04;;;;;;;;;0.75;0.75;;;;;37.09;19.43;101429.53;5101245;27;45401;-81
2022/07/04 16:33:30;;;;;;;;;0.25;0.00;;;;;37.07;19.03;101431.72;5100800;27;45201;-81
2022/07/04 16:35:55;;;;;;;;;1.75;1.75;;;;;37.31;19.09;101415.69;5082539;27;47251;-81
2022/07/04 16:38:21;;;;;;;;;2.50;1.00;;;;;37.36;18.97;101438.59;5073950;27;45500;-81
2022/07/04 16:40:46;;;;;;;;;2.75;1.50;;;;;37.21;19.00;101432.97;5100837;27;45396;-81
2022/07/04 16:43:12;;;;;;;;;1.25;0.25;;;;;37.02;19.53;101438.03;5100871;27;45413;-81
2022/07/04 16:45:37;;;;;;;;;3.50;0.50;;;;;36.92;19.33;101429.66;5082258;27;47535;-81
2022/07/04 16:48:06;;;;;;;;;1.75;1.00;;;;;36.88;19.02;101428.53;5100806;27;45413;-81
2022/07/04 16:50:32;;;;;;;;;1.75;0.50;;;;;36.69;19.43;101427.25;5100826;27;46681;-81
2022/07/04 16:52:58;;;;;;;;;3.50;2.00;;;;;36.63;19.74;101434.59;5100271;27;45429;-81
2022/07/04 16:55:23;;;;;;;;;2.50;0.75;;;;;36.57;20.07;101435.63;5082251;27;48016;-81
2022/07/04 16:57:49;;;;;;;;;3.75;1.25;;;;;36.42;20.25;101424.44;5095821;27;45411;-80
2022/07/04 17:00:14;;;;;;;;;2.75;1.75;;;;;36.40;20.33;101431.31;5073841;27;45315;-80
2022/07/04 17:02:40;;;;;;;;;1.00;1.00;;;;;36.31;20.03;101429.03;5080632;27;45360;-81
2022/07/04 17:05:06;;;;;;;;;3.75;1.00;;;;;36.48;20.09;101439.09;5099565;27;45438;-80
2022/07/04 17:07:32;;;;;;;;;1.50;1.50;;;;;37.10;19.53;101433.94;5100138;27;45699;-81
2022/07/04 17:09:58;;;;;;;;;1.75;1.75;;;;;37.29;19.49;101435.25;5082453;27;45420;-81
2022/07/04 17:12:24;;;;;;;;;0.00;0.00;;;;;37.44;19.31;101417.97;5081246;27;45429;-80
2022/07/04 17:14:50;;;;;;;;;2.00;2.00;;;;;37.42;19.36;101420.19;5085975;27;45319;-80
2022/07/04 17:17:17;;;;;;;;;2.25;2.00;;;;;36.77;19.82;101429.53;5082373;27;45389;-80
2022/07/04 17:19:43;;;;;;;;;1.25;1.25;;;;;36.65;19.69;101435.16;5084519;27;45369;-80
2022/07/04 17:22:08;;;;;;;;;1.25;1.25;;;;;36.23;19.92;101432.25;5102242;27;45311;-81
2022/07/04 17:24:34;;;;;;;;;1.50;1.50;;;;;36.04;19.96;101435.53;5105676;27;45239;-81
2022/07/04 17:26:59;;;;;;;;;2.75;2.75;;;;;35.96;20.07;101431.31;5105176;27;45303;-81
2022/07/04 17:29:25;;;;;;;;;2.25;2.25;;;;;35.76;21.04;101429.13;5105009;27;45420;-81
2022/07/04 17:31:50;;;;;;;;;4.00;2.75;;;;;35.67;20.76;101430.63;5085337;27;45405;-81
2022/07/04 17:34:16;;;;;;;;;6.50;4.50;;;;;35.66;20.70;101428.94;5104205;27;46144;-81
2022/07/04 17:36:41;;;;;;;;;3.75;2.75;;;;;35.70;21.20;101429.25;5093622;27;45599;-81
2022/07/04 17:39:06;;;;;;;;;2.75;2.75;;;;;35.71;20.72;101437.25;5104470;27;45393;-80
2022/07/04 17:41:42;;;;;;;;;3.00;3.00;;;;;35.72;21.27;101436.19;5083882;27;45342;-81
2022/07/04 17:44:11;;;;;;;;;4.75;4.25;;;;;35.63;21.35;101426.69;5096589;27;46437;-81
2022/07/04 17:46:39;;;;;;;;;5.00;4.00;;;;;35.52;21.07;101424.88;5080463;27;45609;-81
2022/07/04 17:49:05;;;;;;;;;4.25;4.00;;;;;35.50;21.02;101435.31;5101730;27;45473;-81
2022/07/04 17:51:31;;;;;;;;;3.00;3.00;;;;;35.52;21.28;101427.63;5084118;27;45530;-81
2022/07/04 17:53:56;;;;;;;;;6.00;4.50;;;;;35.32;21.25;101424.59;5077785;27;47200;-81
2022/07/04 17:56:21;;;;;;;;;3.50;3.50;;;;;35.28;21.68;101427.00;5085449;27;45793;-81
2022/07/04 17:58:47;;;;;;;;;4.50;4.00;;;;;35.48;21.83;101431.97;5085515;27;45438;-81
2022/07/04 18:01:13;;;;;;;;;4.25;3.50;;;;;35.65;21.15;101432.78;5098776;27;45470;-81
2022/07/04 18:03:39;;;;;;;;;4.50;3.50;;;;;35.65;21.38;101441.03;5103422;27;45979;-81
2022/07/04 18:06:04;;;;;;;;;5.25;5.25;;;;;35.55;21.63;101433.47;5102993;27;45650;-81
2022/07/04 18:08:30;;;;;;;;;4.00;4.00;;;;;35.35;22.28;101443.31;5085168;27;45419;-81
2022/07/04 18:10:55;;;;;;;;;8.75;5.75;;;;;35.04;22.20;101434.56;5084552;27;45534;-81
2022/07/04 18:13:21;;;;;;;;;5.50;5.50;;;;;34.99;22.24;101447.34;5084336;27;47445;-81
2022/07/04 18:15:48;;;;;;;;;6.50;5.00;;;;;34.95;21.87;101443.44;5083229;27;45895;-81
2022/07/04 18:18:13;;;;;;;;;5.00;5.00;;;;;34.68;22.40;101441.28;5084450;27;45243;-81
2022/07/04 18:20:39;;;;;;;;;6.50;5.75;;;;;34.88;22.07;101438.94;5103891;27;45529;-81
2022/07/04 18:23:08;;;;;;;;;8.25;6.00;;;;;35.09;21.84;101453.00;5084107;27;48182;-81
2022/07/04 18:25:33;;;;;;;;;6.00;5.00;;;;;35.11;21.83;101450.84;5084624;27;45556;-81
2022/07/04 18:27:58;;;;;;;;;3.75;3.75;;;;;35.14;21.79;101456.69;5084821;27;46914;-81
2022/07/04 18:30:24;;;;;;;;;5.25;4.25;;;;;34.98;22.02;101462.97;5103150;27;45644;-80
2022/07/04 18:32:50;;;;;;;;;8.75;8.75;;;;;34.58;22.60;101462.22;5083919;27;47046;-81
2022/07/04 18:35:16;;;;;;;;;10.00;10.00;;;;;34.59;22.63;101463.88;5084917;27;45550;-82
2022/07/04 18:37:42;;;;;;;;;9.75;8.00;;;;;34.26;23.35;101470.06;5104129;27;45246;-81
2022/07/04 18:43:23;;;;;;;;;9.50;9.25;;;;;33.97;23.47;101463.66;5086467;27;45157;-81
2022/07/04 18:45:37;;;;;;;;;12.00;11.25;;;;;33.89;24.20;101466.75;5091885;27;45223;-81
2022/07/04 18:48:03;;;;;;;;;13.00;11.75;;;;;33.47;25.03;101471.50;5084541;27;45168;-81
2022/07/04 18:50:28;;;;;;;;;15.00;12.25;;;;;33.58;24.50;101468.78;5084165;27;45464;-80
2022/07/04 18:52:53;;;;;;;;;13.50;13.25;;;;;33.67;24.73;101485.69;5083763;27;47478;-81
2022/07/04 18:55:19;;;;;;;;;13.00;13.00;;;;;33.78;24.55;101473.91;5102629;27;45157;-81
2022/07/04 18:57:44;;;;;;;;;13.25;13.00;;;;;33.83;24.27;101489.66;5084349;27;45274;-81
2022/07/04 19:00:10;;;;;;;;;13.75;13.75;;;;;33.86;24.60;101483.69;5084082;27;45495;-80
2022/07/04 19:02:36;;;;;;;;;12.75;12.00;;;;;34.08;24.52;101488.31;5100796;27;46651;-81
2022/07/04 19:05:01;;;;;;;;;12.00;11.00;;;;;33.71;25.45;101490.44;5102350;27;45377;-81
2022/07/04 19:07:26;;;;;;;;;5.50;5.25;;;;;33.53;25.58;101489.72;5083688;27;45495;-81
2022/07/04 19:09:52;;;;;;;;;10.00;8.25;;;;;33.29;26.30;101492.44;5102407;27;45361;-81
2022/07/04 19:12:17;;;;;;;;;7.50;7.00;;;;;33.26;25.98;101514.81;5083575;27;48084;-81
2022/07/04 19:14:43;;;;;;;;;8.00;8.00;;;;;33.34;26.03;101509.00;5102136;27;45376;-81
2022/07/04 19:17:09;;;;;;;;;6.00;5.00;;;;;33.33;27.03;101511.97;5083714;27;45333;-81
2022/07/04 19:19:34;;;;;;;;;4.50;3.75;;;;;33.20;27.32;101523.94;5102226;27;45490;-81
2022/07/04 19:21:59;;;;;;;;;7.00;4.00;;;;;33.32;27.45;101518.53;5101487;27;45913;-81
2022/07/04 19:24:25;;;;;;;;;9.50;4.00;;;;;33.36;27.62;101520.56;5083636;27;45373;-81
2022/07/04 19:26:50;;;;;;;;;4.50;4.50;;;;;33.31;27.90;101534.13;5083766;27;45416;-81
2022/07/04 19:29:15;;;;;;;;;4.00;4.00;;;;;33.21;28.93;101531.09;5102048;27;45401;-81
2022/07/04 19:31:41;;;;;;;;;5.25;3.00;;;;;33.57;27.62;101532.03;5101917;27;45367;-81
2022/07/04 19:34:07;;;;;;;;;6.25;4.75;;;;;33.15;29.33;101536.66;5083651;27;45231;-81
2022/07/04 19:36:33;;;;;;;;;5.00;4.00;;;;;32.99;29.29;101540.88;5083090;27;45231;-81
2022/07/04 19:38:59;;;;;;;;;4.25;4.25;;;;;33.02;29.06;101546.75;5102006;27;45446;-81
2022/07/04 19:41:24;;;;;;;;;5.00;3.25;;;;;33.09;28.61;101557.59;5083349;27;48203;-81
2022/07/04 19:43:50;;;;;;;;;8.50;3.25;;;;;33.12;28.91;101556.28;5082362;27;45458;-81
2022/07/04 19:46:15;;;;;;;;;3.75;3.75;;;;;33.10;28.78;101562.00;5083007;27;45206;-81
2022/07/04 19:48:40;;;;;;;;;3.00;3.00;;;;;33.17;28.90;101562.72;5083330;27;45432;-81
2022/07/04 19:51:09;;;;;;;;;3.25;3.00;;;;;33.16;28.73;101574.75;5101815;27;45306;-81
2022/07/04 19:53:35;;;;;;;;;4.00;3.00;;;;;32.96;28.71;101572.28;5080290;28;46780;-81
2022/07/04 19:56:01;;;;;;;;;5.00;3.00;;;;;33.03;29.23;101584.00;5080995;28;45321;-81
2022/07/04 19:58:26;;;;;;;;;3.00;2.00;;;;;33.20;28.60;101595.13;5080308;28;45367;-81
2022/07/04 20:00:51;;;;;;;;;4.75;2.75;;;;;33.15;29.03;101607.81;5079169;28;46753;-81
2022/07/04 20:03:17;;;;;;;;;2.25;2.00;;;;;33.11;28.85;101610.19;5082203;27;45160;-81
2022/07/04 20:05:43;;;;;;;;;2.00;2.00;;;;;33.10;28.91;101613.16;5080213;28;45264;-81
2022/07/04 20:08:08;;;;;;;;;5.00;3.50;;;;;32.99;29.17;101615.59;5079769;28;45342;-81
2022/07/04 20:10:33;;;;;;;;;5.00;4.00;;;;;32.90;29.25;101627.94;5079521;28;48092;-81
2022/07/04 20:12:59;;;;;;;;;2.75;2.75;;;;;32.88;28.66;101621.84;5079918;28;45213;-81
2022/07/04 20:15:24;;;;;;;;;4.50;3.50;;;;;33.05;29.20;101630.28;5081175;27;45356;-81
2022/07/04 20:17:51;;;;;;;;;4.00;4.00;;;;;33.06;29.34;101632.78;5080775;27;45894;-81
2022/07/04 20:20:17;;;;;;;;;7.50;3.00;;;;;32.80;29.65;101637.75;5079472;28;46123;-81
2022/07/04 20:22:43;;;;;;;;;4.25;3.50;;;;;32.63;29.68;101635.59;5079209;28;46081;-81
2022/07/04 20:25:10;;;;;;;;;2.75;2.75;;;;;33.25;28.51;101644.56;5079905;28;45371;-81
2022/07/04 20:27:36;;;;;;;;;4.00;2.50;;;;;32.76;29.61;101642.84;5075270;28;45432;-81
2022/07/04 20:30:06;;;;;;;;;3.25;2.00;;;;;32.33;30.27;101659.25;5081614;27;46144;-81
2022/07/04 20:32:32;;;;;;;;;2.00;2.00;;;;;32.13;31.18;101662.16;5075609;28;45451;-81
2022/07/04 20:35:06;;;;;;;;;3.25;2.00;;;;;32.20;30.17;101673.06;5083127;27;45384;-81
2022/07/04 20:37:32;;;;;;;;;3.00;2.00;;;;;32.21;30.19;101672.00;5081200;27;45366;-81
2022/07/04 20:39:57;;;;;;;;;3.00;2.75;;;;;32.14;31.26;101672.00;5080655;28;45503;-80
2022/07/04 20:42:23;;;;;;;;;3.75;3.25;;;;;32.17;30.66;101676.22;5079520;28;45612;-82
2022/07/04 20:44:49;;;;;;;;;3.00;3.00;;;;;32.36;30.50;101675.22;5076224;28;45487;-82
2022/07/04 20:47:15;;;;;;;;;2.00;2.00;;;;;32.20;30.27;101678.53;5081114;27;45539;-82
2022/07/04 20:49:44;;;;;;;;;6.25;3.00;;;;;32.25;30.42;101682.25;5080586;27;46727;-82
2022/07/04 20:52:11;;;;;;;;;3.00;3.00;;;;;32.49;30.00;101688.78;5078039;28;45424;-82
2022/07/04 20:54:38;;;;;;;;;5.00;2.25;;;;;32.27;30.24;101692.97;5079344;28;45267;-82
2022/07/04 20:57:05;;;;;;;;;7.50;3.75;;;;;32.09;30.21;101692.88;5078510;28;45387;-82
2022/07/04 20:59:33;;;;;;;;;4.75;3.00;;;;;32.19;30.43;101690.50;5080534;27;45573;-82
2022/07/04 21:02:02;;;;;;;;;3.00;3.00;;;;;32.31;30.23;101699.66;5080376;27;45590;-81
2022/07/04 21:04:28;;;;;;;;;5.50;2.00;;;;;32.02;31.26;101697.56;5079754;28;45408;-81
2022/07/04 21:06:53;;;;;;;;;3.50;2.00;;;;;32.18;30.42;101710.69;5080840;27;45305;-82
2022/07/04 21:09:18;;;;;;;;;7.00;3.00;;;;;31.74;30.87;101708.88;5079035;28;48026;-82
2022/07/04 21:11:44;;;;;;;;;1.50;1.00;;;;;31.67;30.95;101703.47;5076458;27;45509;-81
2022/07/04 21:14:09;;;;;;;;;1.50;1.25;;;;;31.88;30.66;101715.94;5079717;27;45465;-82
2022/07/04 21:16:34;;;;;;;;;2.25;1.50;;;;;31.64;30.91;101717.56;5071953;27;45555;-82
2022/07/04 21:19:00;;;;;;;;;3.00;1.50;;;;;32.11;30.86;101718.09;5074393;28;47071;-79
2022/07/04 21:21:25;;;;;;;;;4.00;2.75;;;;;32.37;30.38;101717.91;5078014;27;45501;-81
2022/07/04 21:23:51;;;;;;;;;3.00;2.00;;;;;31.67;31.24;101727.22;5079398;27;45389;-81
2022/07/04 21:26:16;;;;;;;;;5.00;3.25;;;;;31.61;30.85;101724.25;5079909;27;45320;-81
2022/07/04 21:28:41;;;;;;;;;4.00;2.00;;;;;31.66;30.85;101723.66;5079713;27;45365;-81
2022/07/04 21:31:07;;;;;;;;;6.25;2.75;;;;;31.65;31.56;101734.78;5071903;27;45243;-81
2022/07/04 21:33:34;;;;;;;;;4.00;2.00;;;;;31.84;30.79;101734.66;5076801;27;45749;-80
2022/07/04 21:36:00;;;;;;;;;5.00;3.00;;;;;31.73;31.65;101738.09;5067625;28;45309;-80
2022/07/04 21:38:27;;;;;;;;;1.50;1.50;;;;;31.48;31.83;101739.88;5074548;27;45251;-81
2022/07/04 21:40:52;;;;;;;;;3.00;2.00;;;;;31.16;31.84;101741.69;5079726;27;45536;-81
2022/07/04 21:43:18;;;;;;;;;2.25;2.00;;;;;30.82;32.44;101750.97;5074663;28;45536;-81
2022/07/04 21:45:43;;;;;;;;;1.75;1.75;;;;;30.78;32.02;101758.72;5071240;28;45393;-81
2022/07/04 21:48:08;;;;;;;;;1.25;1.25;;;;;30.93;32.58;101747.59;5076610;28;48311;-81
2022/07/04 21:50:34;;;;;;;;;3.75;3.00;;;;;30.85;32.57;101750.56;5077878;27;46071;-81
2022/07/04 21:53:04;;;;;;;;;2.50;2.00;;;;;30.68;32.76;101754.78;5089193;27;45488;-80
2022/07/04 21:55:30;;;;;;;;;3.00;2.00;;;;;30.46;32.59;101751.38;5099224;27;45583;-81
2022/07/04 21:57:56;;;;;;;;;3.00;2.00;;;;;30.52;32.87;101761.47;5099671;27;46294;-81
2022/07/04 22:00:22;;;;;;;;;2.50;1.00;;;;;30.93;32.24;101761.25;5073132;27;45520;-81
2022/07/04 22:02:47;;;;;;;;;5.00;2.75;;;;;30.71;32.44;101768.81;5094000;27;45405;-81
2022/07/04 22:05:13;;;;;;;;;2.50;2.00;;;;;30.98;32.59;101763.31;5095652;27;45588;-81
2022/07/04 22:07:38;;;;;;;;;1.50;1.50;;;;;30.91;32.22;101771.50;5099408;27;45310;-81
2022/07/04 22:10:04;;;;;;;;;1.00;1.00;;;;;30.90;32.13;101771.72;5103247;27;45408;-81
2022/07/04 22:12:30;;;;;;;;;3.25;3.00;;;;;30.88;32.72;101778.22;5103715;27;45399;-81
2022/07/04 22:14:55;;;;;;;;;1.25;1.25;;;;;30.53;32.74;101778.69;5104268;27;45428;-81
2022/07/04 22:17:21;;;;;;;;;1.50;1.50;;;;;30.47;32.70;101775.72;5105690;27;45487;-81
2022/07/04 22:19:46;;;;;;;;;3.50;2.25;;;;;30.39;32.71;101781.38;5103835;27;45299;-81
2022/07/04 22:22:11;;;;;;;;;2.00;2.00;;;;;30.37;32.86;101786.19;5103247;27;45536;-81
2022/07/04 22:24:37;;;;;;;;;2.25;2.00;;;;;30.34;33.21;101774.88;5103342;27;45223;-81
2022/07/04 22:27:02;;;;;;;;;3.25;2.00;;;;;30.24;33.15;101785.31;5084246;27;47250;-81
2022/07/04 22:29:28;;;;;;;;;2.00;2.00;;;;;30.47;33.00;101775.72;5103271;27;45322;-81
2022/07/04 22:31:53;;;;;;;;;2.25;2.00;;;;;30.51;32.66;101781.56;5084719;27;45733;-81
2022/07/04 22:34:18;;;;;;;;;2.00;1.00;;;;;30.40;32.91;101772.16;5097185;27;45386;-81
2022/07/04 22:36:44;;;;;;;;;2.50;2.50;;;;;30.37;32.38;101777.19;5102267;27;45329;-81
2022/07/04 22:39:12;;;;;;;;;2.00;2.00;;;;;30.40;32.54;101785.78;5095483;27;45290;-81
2022/07/04 22:41:38;;;;;;;;;1.50;1.50;;;;;30.34;32.41;101783.03;5102791;27;45522;-81
2022/07/04 22:44:03;;;;;;;;;3.25;1.50;;;;;30.36;32.42;101789.97;5102208;27;45265;-81
2022/07/04 22:46:29;;;;;;;;;1.00;1.00;;;;;30.29;31.85;101794.59;5084278;27;47243;-81
2022/07/04 22:49:02;;;;;;;;;2.75;1.50;;;;;30.27;32.94;101793.09;5103603;27;45369;-81
2022/07/04 22:51:27;;;;;;;;;1.50;1.00;;;;;30.23;32.31;101786.41;5103425;27;45373;-81
2022/07/04 22:56:37;;;;;;;;;1.00;1.00;;;;;30.82;31.49;101794.59;5103681;27;45531;-80
2022/07/04 22:59:02;;;;;;;;;1.50;1.00;;;;;30.77;31.72;101802.59;5084924;27;45430;-80
2022/07/04 23:01:28;;;;;;;;;1.00;1.00;;;;;30.60;31.58;101790.41;5104319;27;45372;-80
2022/07/04 23:03:55;;;;;;;;;1.25;1.00;;;;;30.60;32.11;101799.44;5103280;27;45656;-80
2022/07/04 23:06:21;;;;;;;;;1.50;1.50;;;;;30.51;31.42;101797.94;5100938;27;46282;-81
2022/07/04 23:08:47;;;;;;;;;1.00;1.00;;;;;29.96;32.14;101801.81;5100825;27;45516;-81
2022/07/04 23:11:12;;;;;;;;;3.00;1.00;;;;;29.94;32.51;101793.00;5083777;27;45657;-81
2022/07/04 23:13:38;;;;;;;;;1.75;1.00;;;;;29.81;32.47;101793.81;5103341;27;45452;-81
2022/07/04 23:16:04;;;;;;;;;1.25;1.25;;;;;29.78;32.44;101797.75;5103223;27;46746;-81
2022/07/04 23:18:31;;;;;;;;;2.75;1.00;;;;;29.89;32.26;101800.94;5102859;27;45255;-80
2022/07/04 23:20:56;;;;;;;;;1.50;1.00;;;;;29.73;32.49;101797.56;5104119;27;45227;-81
2022/07/04 23:23:22;;;;;;;;;1.00;1.00;;;;;29.84;32.20;101798.00;5103912;27;45435;-81
2022/07/04 23:25:47;;;;;;;;;0.00;0.00;;;;;30.14;31.91;101805.66;5103924;27;46255;-80